createdAt,value
2023-04-15T00:02:19.727Z,100517.41
2023-04-15T00:06:31.804Z,100514.38
2023-04-15T00:10:44.341Z,100504.63
2023-04-15T00:14:57.106Z,100524.59
2023-04-15T00:19:08.695Z,100510.88
2023-04-15T00:23:20.288Z,100508.03
2023-04-15T00:27:31.971Z,100524.97
2023-04-15T00:31:44.734Z,100497.94
2023-04-15T00:35:57.160Z,100519.66
2023-04-15T00:40:12.918Z,100525.03
2023-04-15T00:44:24.614Z,100518.19
2023-04-15T00:48:36.965Z,100517.00
2023-04-15T00:52:49.080Z,100532.59
2023-04-15T00:57:00.873Z,100517.25
2023-04-15T01:01:12.552Z,100534.38
2023-04-15T01:05:25.119Z,100499.34
2023-04-15T01:09:36.808Z,100515.72
2023-04-15T01:13:48.494Z,100526.69
2023-04-15T01:18:00.373Z,100526.69
2023-04-15T01:22:12.486Z,100511.34
2023-04-15T01:26:24.633Z,100500.53
2023-04-15T01:30:36.807Z,100513.19
2023-04-15T01:34:48.504Z,100517.34
2023-04-15T01:39:00.345Z,100528.25
2023-04-15T01:43:12.712Z,100534.00
2023-04-15T01:47:24.308Z,100534.44
2023-04-15T01:51:35.883Z,100542.03
2023-04-15T01:55:47.521Z,100536.28
2023-04-15T01:59:59.795Z,100541.06
2023-04-15T02:04:20.489Z,100529.34
2023-04-15T02:08:32.022Z,100525.50
2023-04-15T02:12:43.981Z,100521.59
2023-04-15T02:16:56.582Z,100530.25
2023-04-15T02:21:09.026Z,100533.75
2023-04-15T02:25:23.289Z,100541.41
2023-04-15T02:29:34.889Z,100536.78
2023-04-15T02:33:46.650Z,100529.59
2023-04-15T02:37:58.282Z,100548.31
2023-04-15T02:42:13.358Z,100555.38
2023-04-15T02:46:25.198Z,100565.69
2023-04-15T02:50:39.816Z,100555.69
2023-04-15T02:54:53.285Z,100560.09
2023-04-15T02:59:04.895Z,100563.06
2023-04-15T03:03:16.806Z,100562.94
2023-04-15T03:07:28.488Z,100580.88
2023-04-15T03:11:42.050Z,100559.97
2023-04-15T03:15:55.634Z,100570.88
2023-04-15T03:20:08.755Z,100565.56
2023-04-15T03:24:21.124Z,100589.25
2023-04-15T03:28:32.937Z,100593.41
2023-04-15T03:32:45.352Z,100583.56
2023-04-15T03:36:58.100Z,100579.47
2023-04-15T03:41:09.702Z,100589.34
2023-04-15T03:45:21.274Z,100598.41
2023-04-15T03:49:32.878Z,100596.56
2023-04-15T03:53:44.458Z,100592.47
2023-04-15T03:57:56.048Z,100603.78
2023-04-15T04:02:07.765Z,100609.38
2023-04-15T04:06:19.960Z,100615.34
2023-04-15T04:10:32.032Z,100631.59
2023-04-15T04:14:43.755Z,100617.63
2023-04-15T04:18:55.480Z,100624.44
2023-04-15T04:23:07.106Z,100628.34
2023-04-15T04:27:18.749Z,100637.59
2023-04-15T04:31:30.440Z,100626.72
2023-04-15T04:35:41.994Z,100634.09
2023-04-15T04:39:53.834Z,100641.09
2023-04-15T04:44:05.389Z,100647.06
2023-04-15T04:48:17.392Z,100655.09
2023-04-15T04:52:29.011Z,100668.66
2023-04-15T04:56:41.071Z,100669.88
2023-04-15T05:00:55.775Z,100660.63
2023-04-15T05:05:07.944Z,100675.22
2023-04-15T05:09:19.535Z,100699.91
2023-04-15T05:13:31.636Z,100700.72
2023-04-15T05:17:43.362Z,100690.44
2023-04-15T05:21:54.920Z,100709.56
2023-04-15T05:26:06.570Z,100719.81
2023-04-15T05:30:18.260Z,100718.28
2023-04-15T05:34:29.877Z,100722.97
2023-04-15T05:38:42.084Z,100710.56
2023-04-15T05:42:53.679Z,100734.22
2023-04-15T05:47:05.912Z,100727.34
2023-04-15T05:51:17.561Z,100741.84
2023-04-15T05:55:29.104Z,100744.41
2023-04-15T05:59:42.186Z,100754.81
2023-04-15T06:03:53.960Z,100764.25
2023-04-15T06:08:06.049Z,100765.88
2023-04-15T06:12:17.709Z,100769.59
2023-04-15T06:16:29.471Z,100782.53
2023-04-15T06:20:41.861Z,100788.56
2023-04-15T06:24:54.045Z,100807.81
2023-04-15T06:29:05.828Z,100807.09
2023-04-15T06:33:17.657Z,100816.28
2023-04-15T06:37:29.401Z,100816.94
2023-04-15T06:41:41.170Z,100832.28
2023-04-15T06:45:52.761Z,100837.75
2023-04-15T06:50:04.790Z,100844.78
2023-04-15T06:54:16.446Z,100846.53
2023-04-15T06:58:28.129Z,100857.63
2023-04-15T07:02:41.096Z,100852.44
2023-04-15T07:06:52.763Z,100863.88
2023-04-15T07:11:04.424Z,100871.06
2023-04-15T07:15:16.560Z,100883.50
2023-04-15T07:19:28.471Z,100886.06
2023-04-15T07:23:40.395Z,100891.31
2023-04-15T07:27:53.144Z,100876.78
2023-04-15T07:32:05.111Z,100884.84
2023-04-15T07:36:16.706Z,100896.22
2023-04-15T07:40:28.406Z,100887.63
2023-04-15T07:44:40.111Z,100900.63
2023-04-15T07:48:52.305Z,100915.91
2023-04-15T07:53:04.190Z,100915.41
2023-04-15T07:57:17.069Z,100926.47
2023-04-15T08:01:28.704Z,100918.91
2023-04-15T08:05:40.449Z,100937.66
2023-04-15T08:09:52.352Z,100926.44
2023-04-15T08:14:04.086Z,100937.25
2023-04-15T08:18:17.800Z,100943.22
2023-04-15T08:22:29.775Z,100949.16
2023-04-15T08:27:01.917Z,100957.00
2023-04-15T08:31:16.335Z,100938.09
2023-04-15T08:35:28.046Z,100964.06
2023-04-15T08:39:39.851Z,100950.38
2023-04-15T08:44:01.972Z,100969.31
2023-04-15T08:48:18.395Z,100967.03
2023-04-15T08:52:31.574Z,100979.53
2023-04-15T08:56:43.331Z,100989.56
2023-04-15T09:00:55.188Z,100977.19
2023-04-15T09:05:07.957Z,100991.78
2023-04-15T09:09:19.640Z,100994.63
2023-04-15T09:13:31.664Z,101004.56
2023-04-15T09:17:44.912Z,101008.09
2023-04-15T09:21:59.249Z,100996.31
2023-04-15T09:26:11.427Z,101011.03
2023-04-15T09:30:23.636Z,101011.88
2023-04-15T09:34:37.134Z,101021.69
2023-04-15T09:38:58.524Z,101032.44
2023-04-15T09:43:13.098Z,101029.56
2023-04-15T09:47:32.291Z,101039.50
2023-04-15T09:51:51.354Z,101034.47
2023-04-15T09:56:13.507Z,101037.53
2023-04-15T10:00:25.610Z,101052.03
2023-04-15T10:04:41.553Z,101047.13
2023-04-15T10:08:54.406Z,101040.28
2023-04-15T10:13:09.527Z,101043.31
2023-04-15T10:17:23.556Z,101052.84
2023-04-15T10:21:37.687Z,101046.28
2023-04-15T10:25:49.642Z,101060.44
2023-04-15T10:30:03.723Z,101053.09
2023-04-15T10:34:16.115Z,101060.44
2023-04-15T10:38:35.133Z,101068.88
2023-04-15T10:42:47.288Z,101058.53
2023-04-15T10:46:59.009Z,101061.78
2023-04-15T10:51:14.017Z,101069.19
2023-04-15T10:55:27.564Z,101077.34
2023-04-15T10:59:59.203Z,101077.56
2023-04-15T11:04:11.525Z,101078.06
2023-04-15T11:09:02.395Z,101095.31
2023-04-15T11:13:21.947Z,101080.06
2023-04-15T11:17:33.709Z,101081.44
2023-04-15T11:21:45.521Z,101087.69
2023-04-15T11:25:58.599Z,101104.59
2023-04-15T11:30:24.967Z,101084.97
2023-04-15T11:34:36.919Z,101102.06
2023-04-15T11:38:51.684Z,101091.44
2023-04-15T11:43:11.219Z,101098.84
2023-04-15T11:47:25.888Z,101116.00
2023-04-15T11:51:37.603Z,101113.53
2023-04-15T11:55:51.114Z,101106.16
2023-04-15T12:00:05.233Z,101108.06
2023-04-15T12:04:24.233Z,101116.00
2023-04-15T12:08:49.914Z,101118.69
2023-04-15T12:13:01.604Z,101127.97
2023-04-15T12:17:13.297Z,101121.47
2023-04-15T12:21:27.620Z,101144.47
2023-04-15T12:25:39.370Z,101131.03
2023-04-15T12:29:51.083Z,101135.06
2023-04-15T12:34:04.303Z,101143.75
2023-04-15T12:38:16.344Z,101119.91
2023-04-15T12:42:28.248Z,101150.00
2023-04-15T12:46:40.143Z,101148.41
2023-04-15T12:50:51.853Z,101140.47
2023-04-15T12:55:03.684Z,101185.25
2023-04-15T12:59:17.021Z,101182.88
2023-04-15T13:03:28.854Z,101187.78
2023-04-15T13:07:40.941Z,101185.44
2023-04-15T13:11:52.943Z,101182.63
2023-04-15T13:16:05.003Z,101198.34
2023-04-15T13:20:17.445Z,101181.53
2023-04-15T13:24:29.127Z,101188.59
2023-04-15T13:28:41.063Z,101203.09
2023-04-15T13:32:54.016Z,101206.06
2023-04-15T13:37:09.478Z,101185.69
2023-04-15T13:41:21.373Z,101217.75
2023-04-15T13:45:33.161Z,101228.72
2023-04-15T13:49:44.953Z,101214.88
2023-04-15T13:53:58.119Z,101224.41
2023-04-15T13:58:11.048Z,101239.69
2023-04-15T14:02:23.499Z,101243.19
2023-04-15T14:06:35.646Z,101269.88
2023-04-15T14:10:49.428Z,101270.34
2023-04-15T14:15:01.157Z,101287.94
2023-04-15T14:19:12.882Z,101296.13
2023-04-15T14:23:24.566Z,101294.88
2023-04-15T14:27:36.248Z,101298.63
2023-04-15T14:32:11.018Z,101303.38
2023-04-15T14:36:21.400Z,101305.53
2023-04-15T14:40:33.872Z,101338.09
2023-04-15T14:44:45.792Z,101330.09
2023-04-15T14:48:57.563Z,101323.97
2023-04-15T14:53:09.241Z,101332.41
2023-04-15T14:57:20.878Z,101343.81
2023-04-15T15:01:33.371Z,101351.91
2023-04-15T15:05:47.032Z,101356.13
2023-04-15T15:09:58.753Z,101361.97
2023-04-15T15:14:10.355Z,101340.41
2023-04-15T15:18:22.081Z,101373.16
2023-04-15T15:22:33.809Z,101366.47
2023-04-15T15:26:45.516Z,101386.22
2023-04-15T15:30:57.237Z,101374.88
2023-04-15T15:35:09.700Z,101369.53
2023-04-15T15:39:23.488Z,101346.91
2023-04-15T15:43:35.235Z,101368.59
2023-04-15T15:47:46.991Z,101382.19
2023-04-15T15:51:58.836Z,101384.66
2023-04-15T15:56:10.816Z,101395.97
2023-04-15T16:00:23.221Z,101403.63
2023-04-15T16:04:35.900Z,101419.88
2023-04-15T16:08:47.580Z,101417.19
2023-04-15T16:12:59.487Z,101439.16
2023-04-15T16:17:11.187Z,101422.50
2023-04-15T16:21:24.912Z,101424.03
2023-04-15T16:25:36.678Z,101435.03
2023-04-15T16:29:48.361Z,101447.31
2023-04-15T16:34:00.053Z,101456.31
2023-04-15T16:38:11.803Z,101453.75
2023-04-15T16:42:23.564Z,101447.28
2023-04-15T16:46:35.360Z,101479.00
2023-04-15T16:50:47.857Z,101476.28
2023-04-15T16:54:59.528Z,101468.25
2023-04-15T16:59:11.130Z,101481.09
2023-04-15T17:03:25.618Z,101479.88
2023-04-15T17:07:37.456Z,101485.38
2023-04-15T17:11:49.190Z,101484.72
2023-04-15T17:16:02.255Z,101500.06
2023-04-15T17:20:14.348Z,101502.19
2023-04-15T17:24:27.120Z,101469.38
2023-04-15T17:28:38.778Z,101479.31
2023-04-15T17:32:51.882Z,101501.84
2023-04-15T17:37:03.768Z,101498.13
2023-04-15T17:41:15.784Z,101502.31
2023-04-15T17:45:27.427Z,101522.19
2023-04-15T17:49:39.154Z,101523.47
2023-04-15T17:53:50.936Z,101518.91
2023-04-15T17:58:03.264Z,101524.94
2023-04-15T18:02:15.537Z,101520.63
2023-04-15T18:06:27.368Z,101551.44
2023-04-15T18:10:39.644Z,101533.25
2023-04-15T18:14:51.425Z,101554.13
2023-04-15T18:19:03.213Z,101550.19
2023-04-15T18:23:14.851Z,101551.59
2023-04-15T18:27:27.655Z,101571.28
2023-04-15T18:31:39.261Z,101581.81
2023-04-15T18:35:50.936Z,101586.94
2023-04-15T18:40:02.634Z,101575.81
2023-04-15T18:44:14.283Z,101584.06
2023-04-15T18:48:30.708Z,101615.47
2023-04-15T18:52:42.420Z,101596.66
2023-04-15T18:56:54.161Z,101598.25
2023-04-15T19:01:05.891Z,101614.00
2023-04-15T19:05:17.614Z,101558.28
2023-04-15T19:09:29.492Z,101615.66
2023-04-15T19:13:41.095Z,101619.91
2023-04-15T19:17:52.827Z,101620.31
2023-04-15T19:22:04.889Z,101630.59
2023-04-15T19:26:16.504Z,101623.19
2023-04-15T19:30:28.705Z,101631.69
2023-04-15T19:34:41.426Z,101636.84
2023-04-15T19:38:53.099Z,101641.78
2023-04-15T19:43:04.753Z,101650.03
2023-04-15T19:47:16.703Z,101655.59
2023-04-15T19:51:28.545Z,101665.78
2023-04-15T19:55:40.186Z,101648.13
2023-04-15T19:59:51.833Z,101659.97
2023-04-15T20:04:04.051Z,101640.44
2023-04-15T20:08:15.873Z,101656.38
2023-04-15T20:12:50.811Z,101637.69
2023-04-15T20:16:59.520Z,101643.50
2023-04-15T20:21:11.322Z,101643.69
2023-04-15T20:25:23.012Z,101667.28
2023-04-15T20:29:34.696Z,101666.25
2023-04-15T20:33:46.351Z,101671.56
2023-04-15T20:37:58.006Z,101666.19
2023-04-15T20:42:10.440Z,101648.56
2023-04-15T20:46:22.730Z,101658.84
2023-04-15T20:50:35.145Z,101669.38
2023-04-15T20:54:47.215Z,101655.13
2023-04-15T20:58:59.782Z,101663.53
2023-04-15T21:03:12.162Z,101669.56
2023-04-15T21:07:24.219Z,101674.28
2023-04-15T21:15:53.423Z,101680.03
2023-04-15T21:20:05.763Z,101679.22
2023-04-15T21:24:17.394Z,101658.31
2023-04-15T21:28:32.403Z,101694.53
2023-04-15T21:32:43.980Z,101678.81
2023-04-15T21:36:55.731Z,101688.91
2023-04-15T21:41:09.687Z,101683.28
2023-04-15T21:45:21.736Z,101702.97
2023-04-15T21:49:33.442Z,101707.13
2023-04-15T21:53:45.014Z,101707.31
2023-04-15T21:57:56.555Z,101712.88
2023-04-15T22:02:08.143Z,101719.91
2023-04-15T22:06:19.918Z,101731.66
2023-04-15T22:10:31.896Z,101718.16
2023-04-15T22:14:43.514Z,101733.31
2023-04-15T22:18:55.699Z,101728.34
2023-04-15T22:23:10.363Z,101720.84
2023-04-15T22:27:22.041Z,101741.59
2023-04-15T22:31:33.688Z,101730.19
2023-04-15T22:35:45.382Z,101724.75
2023-04-15T22:39:57.529Z,101740.72
2023-04-15T22:44:09.162Z,101742.59
2023-04-15T22:48:20.821Z,101725.59
2023-04-15T22:52:32.782Z,101741.50
2023-04-15T22:56:44.458Z,101750.25
2023-04-15T23:00:56.099Z,101730.13
2023-04-15T23:05:12.606Z,101746.22
2023-04-15T23:09:25.169Z,101740.44
2023-04-15T23:13:36.847Z,101736.09
2023-04-15T23:17:48.459Z,101744.06
2023-04-15T23:22:00.370Z,101755.50
2023-04-15T23:26:12.015Z,101759.00
2023-04-15T23:30:23.648Z,101745.53
2023-04-15T23:34:35.414Z,101759.81
2023-04-15T23:38:47.902Z,101785.13
2023-04-15T23:42:59.579Z,101773.50
2023-04-15T23:47:11.203Z,101778.50
2023-04-15T23:51:22.814Z,101773.69
2023-04-15T23:55:34.943Z,101779.25
2023-04-15T23:59:46.626Z,101771.97
